createdAt,value
2018-03-08T00:00:51.999Z,1.10
2018-03-08T00:03:19.624Z,0.90
2018-03-08T00:05:47.208Z,0.90
2018-03-08T00:08:15.555Z,0.90
2018-03-08T00:10:43.138Z,0.90
2018-03-08T00:13:10.742Z,0.90
2018-03-08T00:15:38.322Z,1.00
2018-03-08T00:18:05.902Z,1.30
2018-03-08T00:20:33.477Z,1.30
2018-03-08T00:23:01.054Z,1.20
2018-03-08T00:25:28.634Z,1.30
2018-03-08T00:27:56.978Z,1.40
2018-03-08T00:30:24.557Z,1.30
2018-03-08T00:32:52.134Z,1.30
2018-03-08T00:35:19.715Z,1.30
2018-03-08T00:37:48.063Z,1.50
2018-03-08T00:40:15.650Z,1.40
2018-03-08T00:42:43.230Z,1.60
2018-03-08T00:45:11.578Z,2.10
2018-03-08T00:47:39.154Z,2.00
2018-03-08T00:50:06.742Z,1.90
2018-03-08T00:52:35.086Z,1.80
2018-03-08T00:55:02.698Z,1.70
2018-03-08T00:57:30.284Z,2.00
2018-03-08T00:59:57.863Z,2.00
2018-03-08T01:02:25.447Z,1.90
2018-03-08T01:04:53.031Z,2.00
2018-03-08T01:07:21.387Z,1.70
2018-03-08T01:09:48.970Z,1.70
2018-03-08T01:12:16.550Z,1.70
2018-03-08T01:14:44.895Z,1.60
2018-03-08T01:17:12.518Z,1.50
2018-03-08T01:19:40.102Z,1.70
2018-03-08T01:22:07.678Z,1.70
2018-03-08T01:24:35.311Z,1.70
2018-03-08T01:27:02.900Z,1.70
2018-03-08T01:29:30.486Z,1.70
2018-03-08T01:31:58.067Z,1.70
2018-03-08T01:34:25.650Z,1.60
2018-03-08T01:36:54.003Z,1.60
2018-03-08T01:39:21.583Z,1.50
2018-03-08T01:41:49.159Z,1.80
2018-03-08T01:44:17.502Z,1.80
2018-03-08T01:46:45.078Z,1.70
2018-03-08T01:49:12.654Z,1.90
2018-03-08T01:51:52.015Z,1.80
2018-03-08T01:54:20.359Z,1.60
2018-03-08T01:56:47.938Z,1.50
2018-03-08T01:59:15.518Z,1.60
2018-03-08T02:01:43.858Z,1.30
2018-03-08T02:04:11.439Z,1.20
2018-03-08T02:06:39.019Z,1.30
2018-03-08T02:09:06.635Z,1.20
2018-03-08T02:11:34.218Z,1.10
2018-03-08T02:14:01.795Z,1.20
2018-03-08T02:16:29.375Z,1.20
2018-03-08T02:18:56.954Z,1.20
2018-03-08T02:21:25.346Z,1.10
2018-03-08T02:23:53.691Z,1.00
2018-03-08T02:26:21.270Z,1.00
2018-03-08T02:28:48.903Z,1.00
2018-03-08T02:31:16.479Z,1.00
2018-03-08T02:33:44.058Z,1.00
2018-03-08T02:36:11.642Z,1.00
2018-03-08T02:38:39.986Z,1.30
2018-03-08T02:41:07.567Z,1.20
2018-03-08T02:43:35.152Z,1.40
2018-03-08T02:46:03.501Z,1.50
2018-03-08T02:48:31.083Z,1.40
2018-03-08T02:50:58.674Z,1.60
2018-03-08T02:53:26.261Z,1.60
2018-03-08T02:55:53.852Z,1.70
2018-03-08T02:58:21.430Z,1.70
2018-03-08T03:00:49.016Z,1.70
2018-03-08T03:03:17.367Z,1.80
2018-03-08T03:05:45.017Z,1.80
2018-03-08T03:08:12.603Z,1.90
2018-03-08T03:10:40.187Z,2.00
2018-03-08T03:13:07.766Z,2.00
2018-03-08T03:15:36.111Z,2.20
2018-03-08T03:18:03.695Z,2.20
2018-03-08T03:20:31.277Z,2.10
2018-03-08T03:22:59.623Z,2.10
2018-03-08T03:25:27.203Z,2.10
2018-03-08T03:27:54.787Z,2.10
2018-03-08T03:30:23.172Z,2.10
2018-03-08T03:32:51.514Z,2.10
2018-03-08T03:35:19.099Z,2.00
2018-03-08T03:37:46.681Z,2.00
2018-03-08T03:42:49.034Z,2.10
2018-03-08T03:45:16.614Z,2.10
2018-03-08T03:47:44.194Z,2.10
2018-03-08T03:50:11.771Z,2.00
2018-03-08T03:52:40.119Z,2.00
2018-03-08T03:55:07.738Z,2.00
2018-03-08T03:57:35.342Z,2.10
2018-03-08T04:00:02.991Z,2.20
2018-03-08T04:02:30.566Z,2.00
2018-03-08T04:04:58.178Z,2.00
2018-03-08T04:07:26.523Z,1.90
2018-03-08T04:09:54.103Z,1.80
2018-03-08T04:12:21.689Z,1.90
2018-03-08T04:14:50.039Z,2.00
2018-03-08T04:17:17.614Z,2.00
2018-03-08T04:19:45.200Z,2.00
2018-03-08T04:22:13.544Z,1.90
2018-03-08T04:24:41.125Z,1.90
2018-03-08T04:27:08.702Z,1.90
2018-03-08T04:29:37.051Z,2.10
2018-03-08T04:32:04.630Z,2.00
2018-03-08T04:34:32.205Z,2.20
2018-03-08T04:36:59.786Z,2.10
2018-03-08T04:39:28.178Z,2.10
2018-03-08T04:41:56.530Z,2.10
2018-03-08T04:44:24.110Z,2.10
2018-03-08T04:46:52.463Z,2.00
2018-03-08T04:49:25.130Z,2.00
2018-03-08T04:51:52.710Z,2.00
2018-03-08T04:54:20.347Z,1.90
2018-03-08T04:56:48.360Z,2.00
2018-03-08T04:59:16.732Z,1.90
2018-03-08T05:01:45.126Z,2.00
2018-03-08T05:04:12.711Z,1.90
2018-03-08T05:06:41.054Z,2.10
2018-03-08T05:09:08.634Z,2.10
2018-03-08T05:11:37.142Z,2.20
2018-03-08T05:14:05.490Z,2.30
2018-03-08T05:16:33.109Z,2.20
2018-03-08T05:19:01.448Z,2.20
2018-03-08T05:21:29.026Z,2.10
2018-03-08T05:23:56.606Z,2.10
2018-03-08T05:26:24.951Z,2.10
2018-03-08T05:28:52.534Z,2.00
2018-03-08T05:31:20.115Z,2.00
2018-03-08T05:33:48.467Z,2.20
2018-03-08T05:36:16.046Z,2.10
2018-03-08T05:38:43.622Z,2.20
2018-03-08T05:41:11.979Z,2.20
2018-03-08T05:43:39.566Z,2.20
2018-03-08T05:46:07.914Z,2.40
2018-03-08T05:48:35.536Z,2.30
2018-03-08T05:51:03.876Z,2.40
2018-03-08T05:53:31.454Z,2.30
2018-03-08T05:55:59.039Z,2.30
2018-03-08T05:58:27.383Z,2.20
2018-03-08T06:00:54.962Z,2.20
2018-03-08T06:03:22.604Z,2.20
2018-03-08T06:05:50.183Z,2.30
2018-03-08T06:08:17.766Z,2.20
2018-03-08T06:10:46.117Z,2.10
2018-03-08T06:13:13.703Z,2.10
2018-03-08T06:15:41.283Z,2.30
2018-03-08T06:18:09.630Z,2.30
2018-03-08T06:20:37.237Z,2.20
2018-03-08T06:23:04.825Z,2.40
2018-03-08T06:25:32.450Z,2.40
2018-03-08T06:28:00.031Z,2.40
2018-03-08T06:30:28.379Z,2.50
2018-03-08T06:32:55.959Z,2.40
2018-03-08T06:35:24.316Z,2.50
2018-03-08T06:37:51.898Z,2.50
2018-03-08T06:40:19.475Z,2.50
2018-03-08T06:42:47.828Z,2.50
2018-03-08T06:45:15.412Z,2.50
2018-03-08T06:47:42.994Z,2.50
2018-03-08T06:50:11.378Z,2.50
2018-03-08T06:52:39.732Z,2.50
2018-03-08T06:55:07.319Z,2.40
2018-03-08T06:57:35.671Z,2.40
2018-03-08T07:00:03.318Z,2.40
2018-03-08T07:02:30.903Z,2.50
2018-03-08T07:04:58.482Z,2.50
2018-03-08T07:07:26.058Z,2.60
2018-03-08T07:09:54.437Z,2.70
2018-03-08T07:12:22.011Z,2.60
2018-03-08T07:14:50.354Z,2.80
2018-03-08T07:17:17.930Z,2.70
2018-03-08T07:19:45.507Z,2.70
2018-03-08T07:22:13.086Z,2.70
2018-03-08T07:24:41.455Z,2.60
2018-03-08T07:27:09.035Z,2.60
2018-03-08T07:29:37.378Z,2.70
2018-03-08T07:32:04.960Z,2.70
2018-03-08T07:34:32.550Z,2.70
2018-03-08T07:37:00.890Z,2.70
2018-03-08T07:39:28.479Z,2.60
2018-03-08T07:41:56.099Z,2.60
2018-03-08T07:44:23.683Z,2.60
2018-03-08T07:46:51.270Z,2.60
2018-03-08T07:49:18.855Z,2.60
2018-03-08T07:51:47.228Z,2.60
2018-03-08T07:54:15.574Z,2.60
2018-03-08T07:56:43.150Z,2.50
2018-03-08T07:59:10.735Z,2.60
2018-03-08T08:01:38.899Z,2.50
2018-03-08T08:04:06.478Z,2.60
2018-03-08T08:09:35.835Z,2.60
2018-03-08T08:12:03.418Z,2.60
2018-03-08T08:14:30.994Z,2.70
2018-03-08T08:16:58.575Z,2.70
2018-03-08T08:19:26.155Z,2.80
2018-03-08T08:21:54.502Z,2.80
2018-03-08T08:24:22.086Z,2.80
2018-03-08T08:26:49.671Z,2.80
2018-03-08T08:29:18.028Z,2.80
2018-03-08T08:31:45.652Z,2.70
2018-03-08T08:34:13.216Z,2.80
2018-03-08T08:36:40.800Z,2.80
2018-03-08T08:39:08.391Z,2.90
2018-03-08T08:41:35.975Z,2.80
2018-03-08T08:44:04.323Z,3.00
2018-03-08T08:46:31.907Z,3.00
2018-03-08T08:48:59.486Z,3.10
2018-03-08T08:51:27.831Z,3.30
2018-03-08T08:53:55.415Z,3.30
2018-03-08T08:56:22.995Z,3.40
2018-03-08T08:58:51.351Z,3.70
2018-03-08T09:01:18.934Z,3.70
2018-03-08T09:03:46.555Z,3.80
2018-03-08T09:06:14.154Z,3.90
2018-03-08T09:08:41.739Z,3.90
2018-03-08T09:11:10.084Z,4.00
2018-03-08T09:13:37.671Z,3.90
2018-03-08T09:16:05.250Z,4.00
2018-03-08T09:18:33.602Z,4.00
2018-03-08T09:21:01.188Z,4.00
2018-03-08T09:23:29.535Z,4.00
2018-03-08T09:25:57.170Z,4.00
2018-03-08T09:28:24.747Z,4.10
2018-03-08T09:30:52.332Z,4.10
2018-03-08T09:33:19.919Z,4.20
2018-03-08T09:35:47.497Z,4.20
2018-03-08T09:38:15.842Z,4.30
2018-03-08T09:40:43.423Z,4.20
2018-03-08T09:43:11.010Z,4.40
2018-03-08T09:45:39.355Z,4.50
2018-03-08T09:48:06.939Z,4.50
2018-03-08T09:50:34.524Z,4.70
2018-03-08T09:53:02.875Z,5.00
2018-03-08T09:55:30.454Z,4.90
2018-03-08T09:57:58.035Z,5.10
2018-03-08T10:00:26.406Z,5.10
2018-03-08T10:02:53.991Z,5.00
2018-03-08T10:05:21.574Z,5.10
2018-03-08T10:07:49.163Z,5.10
2018-03-08T10:10:16.742Z,5.20
2018-03-08T10:12:44.364Z,5.30
2018-03-08T10:15:11.963Z,5.30
2018-03-08T10:17:39.563Z,5.30
2018-03-08T10:20:07.924Z,5.50
2018-03-08T10:22:35.524Z,5.50
2018-03-08T10:25:03.890Z,5.80
2018-03-08T10:27:31.483Z,5.80
2018-03-08T10:29:59.103Z,6.00
2018-03-08T10:32:26.690Z,6.20
2018-03-08T10:34:54.319Z,6.40
2018-03-08T10:37:21.905Z,6.50
2018-03-08T10:39:49.487Z,6.60
2018-03-08T10:42:17.832Z,6.40
2018-03-08T10:44:45.417Z,6.40
2018-03-08T10:47:13.012Z,6.40
2018-03-08T10:49:41.354Z,6.50
2018-03-08T10:52:08.934Z,6.40
2018-03-08T10:54:36.514Z,6.30
2018-03-08T10:57:04.866Z,5.80
2018-03-08T10:59:32.446Z,5.80
2018-03-08T11:02:02.895Z,5.60
2018-03-08T11:04:36.022Z,5.50
2018-03-08T11:07:03.610Z,5.50
2018-03-08T11:09:31.194Z,5.50
2018-03-08T11:11:58.786Z,5.60
2018-03-08T11:14:26.371Z,5.70
2018-03-08T11:16:53.947Z,5.80
2018-03-08T11:19:21.530Z,5.70
2018-03-08T11:21:49.110Z,5.60
2018-03-08T11:24:16.688Z,5.50
2018-03-08T11:26:45.092Z,5.30
2018-03-08T11:29:13.435Z,5.40
2018-03-08T11:31:41.018Z,5.30
2018-03-08T11:34:10.235Z,5.50
2018-03-08T11:36:38.594Z,5.60
2018-03-08T11:39:06.170Z,5.60
2018-03-08T11:41:34.518Z,5.60
2018-03-08T11:44:02.102Z,5.50
2018-03-08T11:46:29.687Z,5.70
2018-03-08T11:48:58.034Z,5.70
2018-03-08T11:51:25.612Z,5.70
2018-03-08T11:53:53.191Z,5.90
2018-03-08T11:56:21.544Z,7.10
2018-03-08T11:58:49.166Z,7.10
2018-03-08T12:01:16.771Z,7.40
2018-03-08T12:03:44.347Z,7.70
2018-03-08T12:06:11.923Z,7.80
2018-03-08T12:08:39.543Z,7.40
2018-03-08T12:11:07.135Z,7.30
2018-03-08T12:13:34.722Z,7.60
2018-03-08T12:16:02.303Z,7.60
2018-03-08T12:18:30.644Z,8.00
2018-03-08T12:20:58.228Z,7.90
2018-03-08T12:23:25.799Z,8.10
2018-03-08T12:25:53.379Z,8.00
2018-03-08T12:28:21.725Z,8.00
2018-03-08T12:30:49.302Z,8.00
2018-03-08T12:33:16.924Z,7.70
2018-03-08T12:35:44.503Z,7.50
2018-03-08T12:38:12.080Z,7.40
2018-03-08T12:40:39.703Z,7.60
2018-03-08T12:43:07.280Z,7.80
2018-03-08T12:45:34.858Z,8.00
2018-03-08T12:48:02.434Z,7.90
2018-03-08T12:50:30.008Z,8.00
2018-03-08T12:52:57.628Z,8.00
2018-03-08T12:55:25.202Z,7.80
2018-03-08T12:57:52.791Z,7.60
2018-03-08T13:00:20.366Z,7.70
2018-03-08T13:02:47.962Z,7.80
2018-03-08T13:05:16.302Z,8.00
2018-03-08T13:07:43.887Z,7.90
2018-03-08T13:10:11.463Z,8.00
2018-03-08T13:12:39.039Z,7.60
2018-03-08T13:15:07.382Z,7.60
2018-03-08T13:17:34.958Z,7.60
2018-03-08T13:20:02.534Z,7.70
2018-03-08T13:22:30.114Z,7.90
2018-03-08T13:24:58.459Z,7.90
2018-03-08T13:27:26.038Z,7.90
2018-03-08T13:29:53.666Z,7.90
2018-03-08T13:32:21.251Z,8.10
2018-03-08T13:34:48.827Z,8.20
2018-03-08T13:37:16.426Z,8.10
2018-03-08T13:39:44.767Z,8.00
2018-03-08T13:42:12.354Z,7.90
2018-03-08T13:44:39.972Z,8.00
2018-03-08T13:47:07.554Z,8.00
2018-03-08T13:49:36.954Z,7.90
2018-03-08T13:52:04.537Z,7.80
2018-03-08T13:54:32.159Z,7.60
2018-03-08T13:56:59.739Z,7.80
2018-03-08T13:59:27.336Z,7.90
2018-03-08T14:01:54.910Z,7.90
2018-03-08T14:04:22.500Z,7.60
2018-03-08T14:06:50.848Z,7.70
2018-03-08T14:09:18.432Z,7.70
2018-03-08T14:11:46.011Z,7.90
2018-03-08T14:14:14.350Z,8.00
2018-03-08T14:16:41.932Z,7.90
2018-03-08T14:19:09.515Z,7.80
2018-03-08T14:21:37.866Z,7.70
2018-03-08T14:24:06.230Z,7.80
2018-03-08T14:26:33.826Z,7.70
2018-03-08T14:29:01.414Z,7.80
2018-03-08T14:31:29.013Z,8.00
2018-03-08T14:33:56.592Z,7.80
2018-03-08T14:36:24.166Z,7.60
2018-03-08T14:38:51.746Z,7.50
2018-03-08T14:41:20.255Z,7.70
2018-03-08T14:43:48.599Z,7.80
2018-03-08T14:46:16.174Z,7.70
2018-03-08T14:48:43.746Z,7.70
2018-03-08T14:51:11.327Z,7.60
2018-03-08T14:53:39.672Z,7.40
2018-03-08T14:56:08.017Z,7.40
2018-03-08T14:58:35.606Z,7.30
2018-03-08T15:01:03.236Z,7.20
2018-03-08T15:03:30.842Z,6.90
2018-03-08T15:05:58.422Z,6.90
2018-03-08T15:08:26.771Z,6.90
2018-03-08T15:10:54.352Z,6.80
2018-03-08T15:13:21.927Z,6.80
2018-03-08T15:15:49.503Z,7.00
2018-03-08T15:18:17.112Z,7.30
2018-03-08T15:20:45.447Z,7.60
2018-03-08T15:23:13.034Z,7.50
2018-03-08T15:25:40.610Z,7.50
2018-03-08T15:28:08.950Z,7.10
2018-03-08T15:30:36.533Z,7.10
2018-03-08T15:33:04.107Z,7.20
2018-03-08T15:35:31.686Z,7.20
2018-03-08T15:38:00.031Z,7.20
2018-03-08T15:40:27.615Z,7.10
2018-03-08T15:42:55.195Z,7.20
2018-03-08T15:45:23.543Z,7.00
2018-03-08T15:47:51.134Z,6.90
2018-03-08T15:50:19.474Z,6.80
2018-03-08T15:52:47.050Z,6.70
2018-03-08T15:55:14.630Z,6.70
2018-03-08T15:57:42.207Z,6.60
2018-03-08T16:00:09.791Z,6.60
2018-03-08T16:02:38.135Z,6.40
2018-03-08T16:05:05.782Z,6.30
2018-03-08T16:07:45.175Z,6.20
2018-03-08T16:10:30.503Z,6.20
2018-03-08T16:12:58.123Z,6.10
2018-03-08T16:15:25.806Z,5.90
2018-03-08T16:17:53.387Z,5.80
2018-03-08T16:20:20.963Z,5.60
2018-03-08T16:22:48.544Z,5.40
2018-03-08T16:25:16.142Z,5.30
2018-03-08T16:27:43.719Z,5.10
2018-03-08T16:30:11.375Z,5.00
2018-03-08T16:32:38.951Z,4.80
2018-03-08T16:35:06.570Z,4.70
2018-03-08T16:37:34.151Z,4.50
2018-03-08T16:40:02.498Z,4.20
2018-03-08T16:42:30.071Z,4.20
2018-03-08T16:44:57.652Z,4.00
2018-03-08T16:47:26.559Z,3.70
2018-03-08T16:49:54.911Z,3.50
2018-03-08T16:52:22.491Z,3.50
2018-03-08T16:54:50.071Z,3.40
2018-03-08T16:57:18.422Z,3.20
2018-03-08T16:59:46.000Z,3.10
2018-03-08T17:02:13.589Z,3.00
2018-03-08T17:04:41.927Z,2.60
2018-03-08T17:07:09.543Z,2.50
2018-03-08T17:09:37.135Z,2.50
2018-03-08T17:12:04.707Z,2.40
2018-03-08T17:14:32.309Z,2.30
2018-03-08T17:17:00.664Z,2.20
2018-03-08T17:19:28.255Z,2.20
2018-03-08T17:21:56.639Z,2.10
2018-03-08T17:24:24.222Z,2.00
2018-03-08T17:26:52.566Z,2.00
2018-03-08T17:29:20.156Z,1.90
2018-03-08T17:31:48.503Z,1.90
2018-03-08T17:34:16.087Z,1.90
2018-03-08T17:36:43.666Z,1.80
2018-03-08T17:39:12.015Z,1.70
2018-03-08T17:41:39.600Z,1.60
2018-03-08T17:44:07.188Z,1.60
2018-03-08T17:46:35.530Z,1.40
2018-03-08T17:49:03.906Z,1.30
2018-03-08T17:51:31.492Z,1.30
2018-03-08T17:53:59.082Z,1.30
2018-03-08T17:56:26.669Z,1.30
2018-03-08T17:58:54.254Z,1.50
2018-03-08T18:01:21.843Z,1.50
2018-03-08T18:03:51.279Z,1.70
2018-03-08T18:06:19.662Z,1.70
2018-03-08T18:08:48.011Z,1.80
2018-03-08T18:11:15.612Z,1.70
2018-03-08T18:13:44.028Z,1.80
2018-03-08T18:16:11.606Z,1.80
2018-03-08T18:18:39.191Z,2.00
2018-03-08T18:21:06.783Z,2.00
2018-03-08T18:23:35.230Z,1.90
2018-03-08T18:26:02.813Z,1.80
2018-03-08T18:28:30.504Z,1.90
2018-03-08T18:30:58.861Z,2.00
2018-03-08T18:33:26.447Z,1.90
2018-03-08T18:35:54.791Z,2.20
2018-03-08T18:38:22.387Z,2.20
2018-03-08T18:40:50.763Z,2.60
2018-03-08T18:43:18.338Z,2.50
2018-03-08T18:45:45.925Z,2.80
2018-03-08T18:48:13.616Z,2.90
2018-03-08T18:50:41.215Z,3.00
2018-03-08T18:53:08.794Z,3.00
2018-03-08T18:55:36.380Z,3.00
2018-03-08T18:58:16.657Z,3.00
2018-03-08T19:00:44.235Z,3.00
2018-03-08T19:03:11.811Z,3.10
2018-03-08T19:05:39.398Z,3.10
2018-03-08T19:08:06.974Z,3.00
2018-03-08T19:10:34.557Z,3.00
2018-03-08T19:13:02.929Z,2.90
2018-03-08T19:15:31.279Z,2.70
2018-03-08T19:17:58.860Z,2.70
2018-03-08T19:20:26.439Z,2.40
2018-03-08T19:22:54.792Z,2.30
2018-03-08T19:25:22.375Z,2.20
2018-03-08T19:27:49.982Z,2.20
2018-03-08T19:30:17.620Z,2.10
2018-03-08T19:32:46.015Z,2.30
2018-03-08T19:35:13.595Z,2.20
2018-03-08T19:37:41.176Z,2.60
2018-03-08T19:40:08.824Z,2.70
2018-03-08T19:42:36.511Z,2.80
2018-03-08T19:45:04.119Z,3.00
2018-03-08T19:47:32.475Z,3.40
2018-03-08T19:50:00.059Z,3.40
2018-03-08T19:52:27.648Z,3.40
2018-03-08T19:54:55.294Z,3.30
2018-03-08T19:57:22.873Z,3.30
2018-03-08T19:59:51.220Z,3.20
2018-03-08T20:02:18.823Z,3.20
2018-03-08T20:04:47.174Z,3.60
2018-03-08T20:07:14.746Z,3.50
2018-03-08T20:09:42.374Z,3.60
2018-03-08T20:12:09.981Z,3.60
2018-03-08T20:14:37.571Z,3.80
2018-03-08T20:17:05.150Z,3.90
2018-03-08T20:19:32.731Z,3.90
2018-03-08T20:22:00.315Z,3.90
2018-03-08T20:24:28.715Z,3.80
2018-03-08T20:26:57.232Z,3.90
2018-03-08T20:29:25.578Z,3.80
2018-03-08T20:31:53.159Z,3.70
2018-03-08T20:34:20.750Z,3.80
2018-03-08T20:36:48.328Z,3.90
2018-03-08T20:39:15.911Z,3.90
2018-03-08T20:41:43.511Z,4.00
2018-03-08T20:44:11.711Z,3.90
2018-03-08T20:46:40.058Z,4.00
2018-03-08T20:49:08.575Z,3.90
2018-03-08T20:51:37.599Z,3.90
2018-03-08T20:54:05.191Z,3.90
2018-03-08T20:56:32.766Z,4.10
2018-03-08T20:59:00.342Z,4.10
2018-03-08T21:01:27.926Z,4.20
2018-03-08T21:03:56.270Z,4.20
2018-03-08T21:06:23.869Z,4.10
2018-03-08T21:08:51.450Z,4.20
2018-03-08T21:11:20.410Z,4.20
2018-03-08T21:13:48.019Z,4.20
2018-03-08T21:16:15.646Z,4.20
2018-03-08T21:18:43.310Z,4.30
2018-03-08T21:21:10.894Z,4.20
2018-03-08T21:23:39.255Z,4.00
2018-03-08T21:26:06.831Z,4.00
2018-03-08T21:28:34.411Z,4.00
2018-03-08T21:31:02.759Z,4.00
2018-03-08T21:33:30.352Z,4.00
2018-03-08T21:35:58.698Z,3.90
2018-03-08T21:38:26.274Z,3.80
2018-03-08T21:40:53.854Z,4.00
2018-03-08T21:43:21.430Z,4.10
2018-03-08T21:45:49.775Z,4.00
2018-03-08T21:48:17.354Z,4.00
2018-03-08T21:50:44.938Z,4.00
2018-03-08T21:53:12.514Z,3.90
2018-03-08T21:55:40.859Z,4.00
2018-03-08T21:58:08.447Z,3.90
2018-03-08T22:00:36.850Z,4.00
2018-03-08T22:03:05.242Z,4.10
2018-03-08T22:05:33.735Z,4.00
2018-03-08T22:08:01.319Z,4.10
2018-03-08T22:10:28.899Z,4.20
2018-03-08T22:12:56.481Z,4.20
2018-03-08T22:15:24.055Z,4.10
2018-03-08T22:17:51.634Z,4.20
2018-03-08T22:20:19.978Z,4.00
2018-03-08T22:22:47.554Z,3.90
2018-03-08T22:25:15.143Z,3.80
2018-03-08T22:27:43.485Z,3.80
2018-03-08T22:30:11.067Z,3.80
2018-03-08T22:32:38.646Z,3.90
2018-03-08T22:35:06.987Z,4.30
2018-03-08T22:37:34.562Z,4.20
2018-03-08T22:40:02.139Z,4.20
2018-03-08T22:42:29.736Z,4.20
2018-03-08T22:44:58.074Z,4.30
2018-03-08T22:47:25.654Z,4.20
2018-03-08T22:49:53.238Z,4.30
2018-03-08T22:52:21.581Z,4.30
2018-03-08T22:54:49.159Z,4.30
2018-03-08T22:57:16.747Z,4.30
2018-03-08T22:59:45.139Z,4.00
2018-03-08T23:02:14.457Z,3.90
2018-03-08T23:04:42.035Z,3.90
2018-03-08T23:07:09.611Z,3.80
2018-03-08T23:09:37.195Z,3.70
2018-03-08T23:12:04.791Z,3.50
2018-03-08T23:14:33.140Z,3.60
2018-03-08T23:17:00.723Z,3.60
2018-03-08T23:19:28.306Z,3.50
2018-03-08T23:21:56.653Z,3.50
2018-03-08T23:24:24.234Z,3.40
2018-03-08T23:26:51.814Z,3.30
2018-03-08T23:29:21.154Z,3.20
2018-03-08T23:31:48.736Z,3.10
2018-03-08T23:34:16.319Z,3.10
2018-03-08T23:36:43.895Z,3.20
2018-03-08T23:39:11.479Z,3.30
2018-03-08T23:41:39.829Z,3.20
2018-03-08T23:44:07.455Z,3.20
2018-03-08T23:46:35.031Z,3.10
2018-03-08T23:49:02.606Z,3.00
2018-03-08T23:51:30.191Z,3.00
2018-03-08T23:53:58.531Z,3.90
2018-03-08T23:56:26.115Z,3.80
2018-03-08T23:58:53.686Z,3.90
